Donalda, Canada
Current Conditions -  °F | °C
As of 10:00 AM on Sunday 21 Dec 2014 (Local Time) from CYQF Reporting Station
Broken Clouds Broken Clouds  
Wind Chill: 15°   Ceiling: 23000
Heat Index: 21°   Visibility: 15mi
Dew Point: 18°   Wind: 5mph
Humidity: 86%   Direction: 290°WNW
Pressure: 29.29"   Gusts: NA
Location:  52.58°N, 112.57°W
Report Text: CYQF 211700Z 29004KT 15SM SCT080 BKN230 M06/M08 A2929 RMK AC4CI3 SLP967
Loading
Personal Weather Stations






























Interactive Weather Map New forecast layout! Learn more

10-Day Weather Forecast

Advertisements
Track Severe Weather on mobile